createdAt,value
2019-05-06T00:03:05.084Z,6.90
2019-05-06T00:07:13.884Z,6.80
2019-05-06T00:11:23.840Z,6.80
2019-05-06T00:15:34.315Z,6.70
2019-05-06T00:19:44.729Z,6.60
2019-05-06T00:23:54.708Z,6.50
2019-05-06T00:28:21.214Z,6.40
2019-05-06T00:32:29.749Z,6.30
2019-05-06T00:36:38.178Z,6.40
2019-05-06T00:45:14.668Z,6.30
2019-05-06T00:49:23.908Z,6.30
2019-05-06T00:53:49.148Z,6.30
2019-05-06T00:57:57.616Z,6.20
2019-05-06T01:02:06.099Z,6.20
2019-05-06T01:06:15.203Z,6.10
2019-05-06T01:10:23.912Z,6.00
2019-05-06T01:14:54.372Z,5.90
2019-05-06T01:19:04.525Z,5.90
2019-05-06T01:23:14.346Z,5.90
2019-05-06T01:27:24.065Z,5.80
2019-05-06T01:31:42.278Z,5.80
2019-05-06T01:35:44.347Z,5.80
2019-05-06T01:40:06.774Z,5.80
2019-05-06T01:44:15.260Z,5.80
2019-05-06T01:48:41.582Z,5.80
2019-05-06T01:52:50.108Z,5.80
2019-05-06T01:56:58.578Z,5.80
2019-05-06T02:01:07.284Z,5.70
2019-05-06T02:05:16.068Z,5.70
2019-05-06T02:09:24.857Z,5.60
2019-05-06T02:13:34.895Z,5.50
2019-05-06T02:17:44.123Z,5.50
2019-05-06T02:21:54.428Z,5.60
2019-05-06T02:26:04.785Z,5.50
2019-05-06T02:30:15.388Z,5.60
2019-05-06T02:34:25.667Z,5.60
2019-05-06T02:38:45.999Z,5.70
2019-05-06T02:42:44.395Z,5.70
2019-05-06T02:46:58.161Z,5.70
2019-05-06T02:51:08.351Z,5.70
2019-05-06T02:55:32.552Z,5.50
2019-05-06T02:59:38.727Z,5.40
2019-05-06T03:03:47.209Z,5.40
2019-05-06T03:07:57.655Z,5.50
2019-05-06T03:12:05.893Z,5.50
2019-05-06T03:16:14.519Z,5.40
2019-05-06T03:20:57.429Z,5.50
2019-05-06T03:25:08.581Z,5.50
2019-05-06T03:29:17.102Z,5.40
2019-05-06T03:33:47.659Z,5.50
2019-05-06T03:37:35.820Z,5.50
2019-05-06T03:41:44.307Z,5.40
2019-05-06T03:45:57.413Z,5.50
2019-05-06T03:50:07.059Z,5.50
2019-05-06T03:54:16.212Z,5.60
2019-05-06T03:58:26.785Z,5.60
2019-05-06T04:02:39.387Z,5.50
2019-05-06T04:07:05.093Z,5.60
2019-05-06T04:11:15.459Z,5.60
2019-05-06T04:15:26.856Z,5.50
2019-05-06T04:19:36.714Z,5.60
2019-05-06T04:24:04.150Z,5.70
2019-05-06T04:28:34.147Z,5.80
2019-05-06T04:32:43.419Z,5.90
2019-05-06T04:37:14.365Z,5.80
2019-05-06T04:41:26.178Z,5.80
2019-05-06T04:45:33.782Z,5.90
2019-05-06T04:49:43.719Z,5.90
2019-05-06T04:53:53.696Z,6.00
2019-05-06T04:58:04.737Z,6.00
2019-05-06T05:02:13.444Z,6.00
2019-05-06T05:06:23.151Z,6.10
2019-05-06T05:10:39.113Z,6.10
2019-05-06T05:14:52.104Z,6.20
2019-05-06T05:19:08.110Z,6.30
2019-05-06T05:23:36.197Z,6.30
2019-05-06T05:27:45.357Z,6.40
2019-05-06T05:31:53.804Z,6.40
2019-05-06T05:36:02.365Z,6.40
2019-05-06T05:40:12.991Z,6.30
2019-05-06T05:44:23.156Z,6.40
2019-05-06T05:48:33.351Z,6.50
2019-05-06T05:52:42.612Z,6.60
2019-05-06T05:56:52.914Z,6.60
2019-05-06T06:01:03.942Z,6.60
2019-05-06T06:05:12.483Z,6.60
2019-05-06T06:09:23.445Z,6.70
2019-05-06T06:13:32.141Z,6.70
2019-05-06T06:17:58.720Z,6.80
2019-05-06T06:22:08.922Z,6.90
2019-05-06T06:26:17.548Z,7.00
2019-05-06T06:30:27.713Z,7.10
2019-05-06T06:34:37.828Z,7.10
2019-05-06T06:38:53.694Z,7.20
2019-05-06T06:43:04.286Z,7.30
2019-05-06T06:47:13.103Z,7.30
2019-05-06T06:51:23.436Z,7.40
2019-05-06T06:55:31.969Z,7.40
2019-05-06T06:59:56.638Z,7.40
2019-05-06T07:04:10.483Z,7.50
2019-05-06T07:08:31.371Z,7.50
2019-05-06T07:12:27.459Z,7.50
2019-05-06T07:16:36.214Z,7.60
2019-05-06T07:20:49.548Z,7.70
2019-05-06T07:24:58.005Z,7.70
2019-05-06T07:29:15.293Z,7.80
2019-05-06T07:33:18.878Z,7.80
2019-05-06T07:37:27.355Z,7.90
2019-05-06T07:41:37.558Z,8.00
2019-05-06T07:46:23.580Z,8.30
2019-05-06T07:50:33.230Z,8.40
2019-05-06T07:54:42.481Z,8.70
2019-05-06T07:58:52.951Z,8.80
2019-05-06T08:03:22.220Z,9.00
2019-05-06T08:07:33.126Z,9.00
2019-05-06T08:11:42.290Z,9.30
2019-05-06T08:15:53.175Z,9.70
2019-05-06T08:20:02.547Z,10.00
2019-05-06T08:24:12.017Z,10.00
2019-05-06T08:28:22.474Z,10.10
2019-05-06T08:32:32.159Z,10.00
2019-05-06T08:36:42.817Z,10.20
2019-05-06T08:41:11.872Z,10.40
2019-05-06T08:45:22.044Z,10.40
2019-05-06T08:49:32.244Z,10.50
2019-05-06T08:53:42.480Z,10.50
2019-05-06T08:57:52.738Z,10.60
2019-05-06T09:02:13.883Z,10.60
2019-05-06T09:06:28.607Z,10.50
2019-05-06T09:10:32.664Z,10.50
2019-05-06T09:14:43.013Z,10.60
2019-05-06T09:18:53.355Z,10.80
2019-05-06T09:23:04.544Z,10.80
2019-05-06T09:27:19.481Z,10.80
2019-05-06T09:31:48.907Z,10.70
2019-05-06T09:35:57.649Z,10.80
2019-05-06T09:40:08.723Z,10.70
2019-05-06T09:44:17.480Z,10.50
2019-05-06T09:48:27.627Z,10.30
2019-05-06T09:52:36.087Z,10.20
2019-05-06T09:56:49.037Z,10.10
2019-05-06T10:00:59.281Z,10.20
2019-05-06T10:05:07.915Z,10.20
2019-05-06T10:09:16.809Z,10.40
2019-05-06T10:13:25.505Z,10.40
2019-05-06T10:17:33.966Z,10.50
2019-05-06T10:21:42.899Z,10.40
2019-05-06T10:25:52.337Z,10.50
2019-05-06T10:30:12.555Z,10.30
2019-05-06T10:34:22.192Z,10.20
2019-05-06T10:38:36.706Z,10.30
2019-05-06T10:42:52.382Z,10.30
2019-05-06T10:47:02.932Z,10.40
2019-05-06T10:51:17.116Z,10.60
2019-05-06T10:55:26.128Z,10.70
2019-05-06T10:59:34.636Z,10.80
2019-05-06T11:03:43.204Z,10.90
2019-05-06T11:07:52.163Z,11.10
2019-05-06T11:12:02.684Z,11.20
2019-05-06T11:16:12.934Z,11.20
2019-05-06T11:20:23.936Z,11.20
2019-05-06T11:24:32.686Z,11.10
2019-05-06T11:28:55.387Z,11.00
2019-05-06T11:33:14.468Z,10.90
2019-05-06T11:37:27.236Z,10.90
2019-05-06T11:41:36.072Z,11.00
2019-05-06T11:45:44.594Z,11.10
2019-05-06T11:49:56.382Z,11.20
2019-05-06T11:54:16.504Z,11.30
2019-05-06T11:58:34.217Z,11.30
2019-05-06T12:02:48.021Z,11.30
2019-05-06T12:07:09.282Z,11.40
2019-05-06T12:11:03.324Z,11.70
2019-05-06T12:15:12.545Z,11.60
2019-05-06T12:19:22.587Z,11.60
2019-05-06T12:23:35.323Z,11.70
2019-05-06T12:27:44.716Z,11.80
2019-05-06T12:31:54.808Z,11.90
2019-05-06T12:36:23.211Z,12.00
2019-05-06T12:40:32.058Z,12.10
2019-05-06T12:44:41.447Z,12.20
2019-05-06T12:48:52.025Z,12.20
2019-05-06T12:53:00.113Z,12.40
2019-05-06T12:57:08.611Z,12.30
2019-05-06T13:01:17.185Z,12.30
2019-05-06T13:05:25.659Z,12.20
2019-05-06T13:09:34.131Z,12.10
2019-05-06T13:13:56.821Z,12.10
2019-05-06T13:17:53.217Z,12.00
2019-05-06T13:22:03.539Z,11.90
2019-05-06T13:26:12.901Z,11.80
2019-05-06T13:30:22.863Z,11.70
2019-05-06T13:34:33.339Z,11.60
2019-05-06T13:38:42.660Z,11.50
2019-05-06T13:43:02.299Z,11.30
2019-05-06T13:47:12.406Z,11.20
2019-05-06T13:51:23.091Z,11.20
2019-05-06T13:55:31.697Z,11.20
2019-05-06T13:59:43.672Z,11.20
2019-05-06T14:03:52.420Z,11.10
2019-05-06T14:08:04.249Z,11.10
2019-05-06T14:12:11.278Z,11.30
2019-05-06T14:16:24.138Z,11.30
2019-05-06T14:20:30.212Z,11.50
2019-05-06T14:24:40.307Z,11.60
2019-05-06T14:28:53.559Z,11.60
2019-05-06T14:33:03.331Z,11.60
2019-05-06T14:37:12.285Z,11.50
2019-05-06T14:41:26.965Z,11.40
2019-05-06T14:45:33.277Z,11.30
2019-05-06T14:49:43.242Z,11.30
2019-05-06T14:53:53.064Z,11.20
2019-05-06T14:58:04.254Z,11.10
2019-05-06T15:02:13.240Z,10.90
2019-05-06T15:06:22.378Z,10.80
2019-05-06T15:10:32.234Z,10.70
2019-05-06T15:14:42.457Z,10.60
2019-05-06T15:18:53.017Z,10.40
2019-05-06T15:23:04.389Z,10.30
2019-05-06T15:27:12.097Z,10.20
2019-05-06T15:31:47.811Z,10.10
2019-05-06T15:36:03.864Z,10.00
2019-05-06T15:40:12.916Z,10.00
2019-05-06T15:44:23.291Z,10.00
2019-05-06T15:48:33.060Z,9.90
2019-05-06T15:52:43.548Z,9.80
2019-05-06T15:56:53.221Z,10.00
2019-05-06T16:01:03.189Z,10.00
2019-05-06T16:05:18.935Z,10.10
2019-05-06T16:09:23.404Z,10.10
2019-05-06T16:13:32.168Z,10.10
2019-05-06T16:17:42.659Z,10.20
2019-05-06T16:21:52.349Z,10.00
2019-05-06T16:26:03.001Z,10.00
2019-05-06T16:30:13.213Z,10.10
2019-05-06T16:34:22.781Z,10.10
2019-05-06T16:38:32.293Z,10.20
2019-05-06T16:42:42.579Z,10.20
2019-05-06T16:46:52.090Z,10.30
2019-05-06T16:51:04.539Z,10.30
2019-05-06T16:55:24.295Z,10.30
2019-05-06T16:59:33.604Z,10.30
2019-05-06T17:08:12.337Z,10.30
2019-05-06T17:12:22.423Z,10.30
2019-05-06T17:16:31.076Z,10.10
2019-05-06T17:20:39.832Z,10.00
2019-05-06T17:24:48.773Z,10.00
2019-05-06T17:29:07.990Z,9.90
2019-05-06T17:33:34.304Z,9.90
2019-05-06T17:37:53.448Z,10.00
2019-05-06T17:42:01.912Z,9.90
2019-05-06T17:46:12.719Z,9.80
2019-05-06T17:50:42.032Z,9.80
2019-05-06T17:54:52.572Z,9.80
2019-05-06T17:59:03.032Z,9.80
2019-05-06T18:03:11.366Z,9.70
2019-05-06T18:07:22.284Z,9.70
2019-05-06T18:11:33.018Z,9.70
2019-05-06T18:15:42.902Z,9.70
2019-05-06T18:19:51.116Z,9.70
2019-05-06T18:23:59.604Z,9.70
2019-05-06T18:28:09.422Z,9.70
2019-05-06T18:32:17.984Z,9.60
2019-05-06T18:36:26.510Z,9.50
2019-05-06T18:40:34.999Z,9.50
2019-05-06T18:44:44.032Z,9.40
2019-05-06T18:48:52.669Z,9.30
2019-05-06T18:53:02.468Z,9.30
2019-05-06T18:57:13.044Z,9.20
2019-05-06T19:01:23.267Z,9.20
2019-05-06T19:05:33.293Z,9.10
2019-05-06T19:09:43.419Z,9.10
2019-05-06T19:13:52.699Z,9.10
2019-05-06T19:18:02.317Z,9.20
2019-05-06T19:22:13.783Z,9.20
2019-05-06T19:26:21.189Z,9.20
2019-05-06T19:30:31.879Z,9.20
2019-05-06T19:34:42.058Z,9.10
2019-05-06T19:38:50.318Z,9.10
2019-05-06T19:42:58.855Z,9.10
2019-05-06T19:47:07.336Z,9.10
2019-05-06T19:51:15.802Z,9.20
2019-05-06T19:55:24.272Z,9.20
2019-05-06T19:59:33.232Z,9.20
2019-05-06T20:03:41.801Z,9.10
2019-05-06T20:07:57.677Z,9.10
2019-05-06T20:16:41.982Z,9.00
2019-05-06T20:20:52.806Z,9.00
2019-05-06T20:25:04.484Z,9.00
2019-05-06T20:29:13.325Z,9.00
2019-05-06T20:33:22.092Z,9.00
2019-05-06T20:37:32.891Z,9.00
2019-05-06T20:41:42.514Z,9.00
2019-05-06T20:45:52.187Z,9.10
2019-05-06T20:50:02.344Z,9.00
2019-05-06T20:54:12.959Z,9.00
2019-05-06T20:58:22.982Z,9.00
2019-05-06T21:02:32.659Z,9.00
2019-05-06T21:06:42.626Z,9.00
2019-05-06T21:10:52.922Z,8.90
2019-05-06T21:15:02.346Z,9.00
2019-05-06T21:19:12.593Z,8.90
2019-05-06T21:23:42.677Z,8.90
2019-05-06T21:27:53.145Z,8.80
2019-05-06T21:32:02.747Z,8.80
2019-05-06T21:36:12.385Z,8.70
2019-05-06T21:40:21.063Z,8.70
2019-05-06T21:44:29.527Z,8.70
2019-05-06T21:48:38.025Z,8.70
2019-05-06T21:52:46.765Z,8.70
2019-05-06T21:56:55.510Z,8.70
2019-05-06T22:01:06.230Z,8.70
2019-05-06T22:05:15.023Z,8.60
2019-05-06T22:09:23.482Z,8.60
2019-05-06T22:13:33.233Z,8.70
2019-05-06T22:17:42.960Z,8.60
2019-05-06T22:21:59.380Z,8.60
2019-05-06T22:26:13.453Z,8.60
2019-05-06T22:30:18.119Z,8.50
2019-05-06T22:34:26.601Z,8.50
2019-05-06T22:38:35.084Z,8.60
2019-05-06T22:42:43.533Z,8.70
2019-05-06T22:46:52.025Z,8.70
2019-05-06T22:51:02.561Z,8.70
2019-05-06T22:55:12.956Z,8.70
2019-05-06T22:59:24.456Z,8.70
2019-05-06T23:03:34.584Z,8.70
2019-05-06T23:07:43.216Z,8.70
2019-05-06T23:11:51.678Z,8.70
2019-05-06T23:16:02.041Z,8.70
2019-05-06T23:20:10.848Z,8.80
2019-05-06T23:24:19.305Z,8.80
2019-05-06T23:28:28.057Z,8.80
2019-05-06T23:32:36.829Z,8.70
2019-05-06T23:37:02.711Z,8.70
2019-05-06T23:41:47.428Z,8.70
2019-05-06T23:46:32.494Z,8.60
2019-05-06T23:51:17.402Z,8.70
2019-05-06T23:56:03.486Z,8.70
